sensor_id;sensor_type;location;lat;lon;timestamp;pressure;altitude;pressure_sealevel;temperature;humidity
68320;BME280;55168;51.120;17.024;2023-02-20T00:00:00;100820;;;0.2;100.0
68320;BME280;55168;51.120;17.024;2023-02-20T00:01:00;100820;;;0.2;100.0
68320;BME280;55168;51.120;17.024;2023-02-20T00:02:00;100820;;;0.2;100.0
68320;BME280;55168;51.120;17.024;2023-02-20T00:03:00;100820;;;0.3;100.0
68320;BME280;55168;51.120;17.024;2023-02-20T00:04:00;100820;;;0.3;100.0
68320;BME280;55168;51.120;17.024;2023-02-20T00:05:00;100820;;;0.3;100.0
68320;BME280;55168;51.120;17.024;2023-02-20T00:06:00;100820;;;0.3;100.0
68320;BME280;55168;51.120;17.024;2023-02-20T00:07:00;100820;;;0.3;100.0
68320;BME280;55168;51.120;17.024;2023-02-20T00:08:00;100820;;;0.3;100.0
68320;BME280;55168;51.120;17.024;2023-02-20T00:09:00;100820;;;0.4;100.0
68320;BME280;55168;51.120;17.024;2023-02-20T00:10:00;100820;;;0.4;100.0
68320;BME280;55168;51.120;17.024;2023-02-20T00:11:00;100820;;;0.4;100.0
68320;BME280;55168;51.120;17.024;2023-02-20T00:12:00;100820;;;0.4;100.0
68320;BME280;55168;51.120;17.024;2023-02-20T00:13:00;100820;;;0.3;100.0
68320;BME280;55168;51.120;17.024;2023-02-20T00:14:00;100810;;;0.3;100.0
68320;BME280;55168;51.120;17.024;2023-02-20T00:15:00;100810;;;0.3;100.0
68320;BME280;55168;51.120;17.024;2023-02-20T00:16:00;100810;;;0.3;100.0
68320;BME280;55168;51.120;17.024;2023-02-20T00:17:00;100800;;;0.3;100.0
68320;BME280;55168;51.120;17.024;2023-02-20T00:18:00;100800;;;0.3;100.0
68320;BME280;55168;51.120;17.024;2023-02-20T00:19:00;100810;;;0.3;100.0
68320;BME280;55168;51.120;17.024;2023-02-20T00:20:00;100800;;;0.3;100.0
68320;BME280;55168;51.120;17.024;2023-02-20T00:21:00;100800;;;0.2;100.0
68320;BME280;55168;51.120;17.024;2023-02-20T00:22:00;100800;;;0.3;100.0
68320;BME280;55168;51.120;17.024;2023-02-20T00:23:00;100800;;;0.3;100.0
68320;BME280;55168;51.120;17.024;2023-02-20T00:24:00;100800;;;0.3;100.0
68320;BME280;55168;51.120;17.024;2023-02-20T00:25:00;100800;;;0.4;100.0
68320;BME280;55168;51.120;17.024;2023-02-20T00:26:00;100800;;;0.4;100.0
68320;BME280;55168;51.120;17.024;2023-02-20T00:27:00;100790;;;0.4;100.0
68320;BME280;55168;51.120;17.024;2023-02-20T00:28:00;100790;;;0.4;100.0
68320;BME280;55168;51.120;17.024;2023-02-20T00:29:00;100790;;;0.4;100.0
68320;BME280;55168;51.120;17.024;2023-02-20T00:30:00;100790;;;0.5;100.0
68320;BME280;55168;51.120;17.024;2023-02-20T00:31:00;100780;;;0.6;100.0
68320;BME280;55168;51.120;17.024;2023-02-20T00:32:00;100790;;;0.6;100.0
68320;BME280;55168;51.120;17.024;2023-02-20T00:33:00;100780;;;0.6;100.0
68320;BME280;55168;51.120;17.024;2023-02-20T00:34:00;100780;;;0.6;100.0
68320;BME280;55168;51.120;17.024;2023-02-20T00:35:00;100780;;;0.6;100.0
68320;BME280;55168;51.120;17.024;2023-02-20T00:36:00;100770;;;0.6;100.0
68320;BME280;55168;51.120;17.024;2023-02-20T00:37:00;100780;;;0.6;100.0
68320;BME280;55168;51.120;17.024;2023-02-20T00:38:00;100780;;;0.6;100.0
68320;BME280;55168;51.120;17.024;2023-02-20T00:39:00;100770;;;0.5;100.0
68320;BME280;55168;51.120;17.024;2023-02-20T00:40:00;100780;;;0.6;100.0
68320;BME280;55168;51.120;17.024;2023-02-20T00:41:00;100770;;;0.6;100.0
68320;BME280;55168;51.120;17.024;2023-02-20T00:42:00;100770;;;0.6;100.0
68320;BME280;55168;51.120;17.024;2023-02-20T00:43:00;100770;;;0.6;100.0
68320;BME280;55168;51.120;17.024;2023-02-20T00:44:00;100770;;;0.7;100.0
68320;BME280;55168;51.120;17.024;2023-02-20T00:45:00;100770;;;0.7;100.0
68320;BME280;55168;51.120;17.024;2023-02-20T00:46:00;100770;;;0.8;100.0
68320;BME280;55168;51.120;17.024;2023-02-20T00:47:00;100770;;;0.8;100.0
68320;BME280;55168;51.120;17.024;2023-02-20T00:48:00;100770;;;0.8;100.0
68320;BME280;55168;51.120;17.024;2023-02-20T00:49:00;100760;;;0.8;100.0
68320;BME280;55168;51.120;17.024;2023-02-20T00:50:00;100760;;;0.9;100.0
68320;BME280;55168;51.120;17.024;2023-02-20T00:51:00;100760;;;0.8;100.0
68320;BME280;55168;51.120;17.024;2023-02-20T00:52:00;100760;;;0.8;100.0
68320;BME280;55168;51.120;17.024;2023-02-20T00:53:00;100770;;;0.8;100.0
68320;BME280;55168;51.120;17.024;2023-02-20T00:54:00;100770;;;0.8;100.0
68320;BME280;55168;51.120;17.024;2023-02-20T00:55:00;100770;;;0.8;100.0
68320;BME280;55168;51.120;17.024;2023-02-20T00:56:00;100770;;;0.9;100.0
68320;BME280;55168;51.120;17.024;2023-02-20T00:57:00;100770;;;0.9;100.0
68320;BME280;55168;51.120;17.024;2023-02-20T00:58:00;100770;;;0.9;100.0
68320;BME280;55168;51.120;17.024;2023-02-20T00:59:00;100770;;;1.0;100.0
68320;BME280;55168;51.120;17.024;2023-02-20T01:00:00;100770;;;0.9;100.0
68320;BME280;55168;51.120;17.024;2023-02-20T01:01:00;100770;;;0.9;100.0
68320;BME280;55168;51.120;17.024;2023-02-20T01:02:00;100760;;;1.0;100.0
68320;BME280;55168;51.120;17.024;2023-02-20T01:03:00;100770;;;1.0;100.0
68320;BME280;55168;51.120;17.024;2023-02-20T01:04:00;100760;;;1.0;100.0
68320;BME280;55168;51.120;17.024;2023-02-20T01:05:00;100760;;;1.0;100.0
68320;BME280;55168;51.120;17.024;2023-02-20T01:06:00;100760;;;1.0;100.0
68320;BME280;55168;51.120;17.024;2023-02-20T01:07:00;100770;;;1.0;100.0
68320;BME280;55168;51.120;17.024;2023-02-20T01:08:00;100770;;;1.0;100.0
68320;BME280;55168;51.120;17.024;2023-02-20T01:09:00;100760;;;1.0;100.0
68320;BME280;55168;51.120;17.024;2023-02-20T01:10:00;100760;;;1.0;100.0
68320;BME280;55168;51.120;17.024;2023-02-20T01:11:00;100760;;;1.0;100.0
68320;BME280;55168;51.120;17.024;2023-02-20T01:12:00;100760;;;1.0;100.0
68320;BME280;55168;51.120;17.024;2023-02-20T01:13:00;100760;;;1.1;100.0
68320;BME280;55168;51.120;17.024;2023-02-20T01:14:00;100760;;;1.1;100.0
68320;BME280;55168;51.120;17.024;2023-02-20T01:15:00;100760;;;1.1;100.0
68320;BME280;55168;51.120;17.024;2023-02-20T01:16:00;100760;;;1.1;100.0
68320;BME280;55168;51.120;17.024;2023-02-20T01:17:00;100760;;;1.1;100.0
68320;BME280;55168;51.120;17.024;2023-02-20T01:18:00;100760;;;1.1;100.0
68320;BME280;55168;51.120;17.024;2023-02-20T01:19:00;100750;;;1.1;100.0
68320;BME280;55168;51.120;17.024;2023-02-20T01:20:00;100750;;;1.1;100.0
68320;BME280;55168;51.120;17.024;2023-02-20T01:21:00;100760;;;1.1;100.0
68320;BME280;55168;51.120;17.024;2023-02-20T01:22:00;100760;;;1.1;100.0
68320;BME280;55168;51.120;17.024;2023-02-20T01:23:00;100760;;;1.2;100.0
68320;BME280;55168;51.120;17.024;2023-02-20T01:24:00;100750;;;1.2;100.0
68320;BME280;55168;51.120;17.024;2023-02-20T01:25:00;100750;;;1.2;100.0
68320;BME280;55168;51.120;17.024;2023-02-20T01:26:00;100750;;;1.2;100.0
68320;BME280;55168;51.120;17.024;2023-02-20T01:27:00;100750;;;1.2;100.0
68320;BME280;55168;51.120;17.024;2023-02-20T01:28:00;100750;;;1.2;100.0
68320;BME280;55168;51.120;17.024;2023-02-20T01:29:00;100750;;;1.2;100.0
68320;BME280;55168;51.120;17.024;2023-02-20T01:30:00;100740;;;1.3;100.0
68320;BME280;55168;51.120;17.024;2023-02-20T01:31:00;100740;;;1.3;100.0
68320;BME280;55168;51.120;17.024;2023-02-20T01:32:00;100750;;;1.2;100.0
68320;BME280;55168;51.120;17.024;2023-02-20T01:33:00;100740;;;1.2;100.0
68320;BME280;55168;51.120;17.024;2023-02-20T01:34:00;100740;;;1.2;100.0
68320;BME280;55168;51.120;17.024;2023-02-20T01:35:00;100740;;;1.2;100.0
68320;BME280;55168;51.120;17.024;2023-02-20T01:36:00;100740;;;1.1;100.0
68320;BME280;55168;51.120;17.024;2023-02-20T01:37:00;100730;;;1.1;100.0
68320;BME280;55168;51.120;17.024;2023-02-20T01:38:00;100730;;;1.0;100.0
68320;BME280;55168;51.120;17.024;2023-02-20T01:39:00;100730;;;1.0;100.0
68320;BME280;55168;51.120;17.024;2023-02-20T01:40:00;100730;;;0.9;100.0
68320;BME280;55168;51.120;17.024;2023-02-20T01:41:00;100720;;;0.9;100.0
68320;BME280;55168;51.120;17.024;2023-02-20T01:42:01;100720;;;0.9;100.0
68320;BME280;55168;51.120;17.024;2023-02-20T01:43:00;100720;;;0.9;100.0
68320;BME280;55168;51.120;17.024;2023-02-20T01:44:00;100720;;;0.8;100.0
68320;BME280;55168;51.120;17.024;2023-02-20T01:47:01;100710;;;0.8;100.0
68320;BME280;55168;51.120;17.024;2023-02-20T01:48:00;100710;;;0.8;100.0
68320;BME280;55168;51.120;17.024;2023-02-20T01:49:02;100710;;;0.8;100.0
68320;BME280;55168;51.120;17.024;2023-02-20T01:50:00;100710;;;0.8;100.0
68320;BME280;55168;51.120;17.024;2023-02-20T01:51:00;100710;;;0.8;100.0
68320;BME280;55168;51.120;17.024;2023-02-20T01:52:02;100710;;;0.8;100.0
68320;BME280;55168;51.120;17.024;2023-02-20T01:53:02;100710;;;0.8;100.0
68320;BME280;55168;51.120;17.024;2023-02-20T01:54:00;100700;;;0.7;100.0
68320;BME280;55168;51.120;17.024;2023-02-20T01:55:01;100700;;;0.8;100.0
68320;BME280;55168;51.120;17.024;2023-02-20T01:56:01;100700;;;0.8;100.0
68320;BME280;55168;51.120;17.024;2023-02-20T01:57:00;100700;;;0.8;100.0
68320;BME280;55168;51.120;17.024;2023-02-20T01:58:04;100710;;;0.9;100.0
68320;BME280;55168;51.120;17.024;2023-02-20T01:59:00;100700;;;1.0;100.0
68320;BME280;55168;51.120;17.024;2023-02-20T02:00:03;100700;;;1.0;100.0
68320;BME280;55168;51.120;17.024;2023-02-20T02:01:00;100700;;;1.0;100.0
68320;BME280;55168;51.120;17.024;2023-02-20T02:02:00;100700;;;1.0;100.0
68320;BME280;55168;51.120;17.024;2023-02-20T02:03:09;100700;;;1.0;100.0
68320;BME280;55168;51.120;17.024;2023-02-20T02:04:01;100690;;;1.0;100.0
68320;BME280;55168;51.120;17.024;2023-02-20T02:05:00;100690;;;1.1;100.0
68320;BME280;55168;51.120;17.024;2023-02-20T02:06:01;100690;;;1.1;100.0
68320;BME280;55168;51.120;17.024;2023-02-20T02:07:00;100690;;;1.1;100.0
68320;BME280;55168;51.120;17.024;2023-02-20T02:08:00;100690;;;1.1;100.0
68320;BME280;55168;51.120;17.024;2023-02-20T02:09:02;100690;;;1.2;100.0
68320;BME280;55168;51.120;17.024;2023-02-20T02:10:02;100690;;;1.1;100.0
68320;BME280;55168;51.120;17.024;2023-02-20T02:11:02;100690;;;1.1;100.0
68320;BME280;55168;51.120;17.024;2023-02-20T02:12:00;100690;;;1.1;100.0
68320;BME280;55168;51.120;17.024;2023-02-20T02:13:00;100690;;;1.1;100.0
68320;BME280;55168;51.120;17.024;2023-02-20T02:14:00;100680;;;1.0;100.0
68320;BME280;55168;51.120;17.024;2023-02-20T02:15:00;100680;;;1.0;100.0
68320;BME280;55168;51.120;17.024;2023-02-20T02:18:10;100680;;;0.9;100.0
68320;BME280;55168;51.120;17.024;2023-02-20T02:21:06;100680;;;0.9;100.0
68320;BME280;55168;51.120;17.024;2023-02-20T02:22:05;100670;;;0.8;100.0
68320;BME280;55168;51.120;17.024;2023-02-20T02:24:07;100680;;;0.8;100.0
68320;BME280;55168;51.120;17.024;2023-02-20T02:26:25;100670;;;0.8;100.0
68320;BME280;55168;51.120;17.024;2023-02-20T02:30:12;100660;;;0.7;100.0
68320;BME280;55168;51.120;17.024;2023-02-20T02:31:05;100660;;;0.7;100.0
68320;BME280;55168;51.120;17.024;2023-02-20T02:32:11;100660;;;0.7;100.0
68320;BME280;55168;51.120;17.024;2023-02-20T02:36:05;100660;;;0.7;100.0
68320;BME280;55168;51.120;17.024;2023-02-20T02:39:03;100670;;;0.8;100.0
68320;BME280;55168;51.120;17.024;2023-02-20T02:40:02;100670;;;0.8;100.0
68320;BME280;55168;51.120;17.024;2023-02-20T02:43:07;100650;;;0.8;100.0
68320;BME280;55168;51.120;17.024;2023-02-20T02:45:02;100640;;;0.8;100.0
68320;BME280;55168;51.120;17.024;2023-02-20T02:46:03;100640;;;0.7;100.0
68320;BME280;55168;51.120;17.024;2023-02-20T02:47:02;100640;;;0.7;100.0
68320;BME280;55168;51.120;17.024;2023-02-20T02:48:04;100640;;;0.7;100.0
68320;BME280;55168;51.120;17.024;2023-02-20T02:49:02;100640;;;0.6;100.0
68320;BME280;55168;51.120;17.024;2023-02-20T02:50:03;100650;;;0.6;100.0
68320;BME280;55168;51.120;17.024;2023-02-20T02:51:02;100650;;;0.6;100.0
68320;BME280;55168;51.120;17.024;2023-02-20T02:52:00;100660;;;0.6;100.0
68320;BME280;55168;51.120;17.024;2023-02-20T02:53:00;100660;;;0.6;100.0
68320;BME280;55168;51.120;17.024;2023-02-20T02:54:04;100660;;;0.6;100.0
68320;BME280;55168;51.120;17.024;2023-02-20T02:55:00;100650;;;0.6;100.0
68320;BME280;55168;51.120;17.024;2023-02-20T02:56:00;100660;;;0.6;100.0
68320;BME280;55168;51.120;17.024;2023-02-20T02:57:18;100650;;;0.6;100.0
68320;BME280;55168;51.120;17.024;2023-02-20T02:58:01;100650;;;0.6;100.0
68320;BME280;55168;51.120;17.024;2023-02-20T02:59:00;100650;;;0.6;100.0
68320;BME280;55168;51.120;17.024;2023-02-20T03:00:02;100640;;;0.6;100.0
68320;BME280;55168;51.120;17.024;2023-02-20T03:01:00;100640;;;0.6;100.0
68320;BME280;55168;51.120;17.024;2023-02-20T03:02:02;100640;;;0.6;100.0
68320;BME280;55168;51.120;17.024;2023-02-20T03:03:09;100640;;;0.5;100.0
68320;BME280;55168;51.120;17.024;2023-02-20T03:04:00;100640;;;0.5;100.0
68320;BME280;55168;51.120;17.024;2023-02-20T03:05:00;100640;;;0.5;100.0
68320;BME280;55168;51.120;17.024;2023-02-20T03:07:02;100630;;;0.5;100.0
68320;BME280;55168;51.120;17.024;2023-02-20T03:08:00;100630;;;0.5;100.0
68320;BME280;55168;51.120;17.024;2023-02-20T03:09:01;100630;;;0.5;100.0
68320;BME280;55168;51.120;17.024;2023-02-20T03:10:01;100630;;;0.5;100.0
68320;BME280;55168;51.120;17.024;2023-02-20T03:11:02;100620;;;0.5;100.0
68320;BME280;55168;51.120;17.024;2023-02-20T03:12:00;100620;;;0.5;100.0
68320;BME280;55168;51.120;17.024;2023-02-20T03:13:01;100620;;;0.5;100.0
68320;BME280;55168;51.120;17.024;2023-02-20T03:14:04;100620;;;0.5;100.0
68320;BME280;55168;51.120;17.024;2023-02-20T03:15:02;100620;;;0.6;100.0
68320;BME280;55168;51.120;17.024;2023-02-20T03:16:00;100620;;;0.6;100.0
68320;BME280;55168;51.120;17.024;2023-02-20T03:17:10;100620;;;0.6;100.0
68320;BME280;55168;51.120;17.024;2023-02-20T03:18:03;100620;;;0.6;100.0
68320;BME280;55168;51.120;17.024;2023-02-20T03:19:00;100620;;;0.6;100.0
68320;BME280;55168;51.120;17.024;2023-02-20T03:20:02;100620;;;0.6;100.0
68320;BME280;55168;51.120;17.024;2023-02-20T03:21:02;100620;;;0.6;100.0
68320;BME280;55168;51.120;17.024;2023-02-20T03:22:00;100620;;;0.6;100.0
68320;BME280;55168;51.120;17.024;2023-02-20T03:23:00;100620;;;0.6;100.0
68320;BME280;55168;51.120;17.024;2023-02-20T03:24:00;100610;;;0.6;100.0
68320;BME280;55168;51.120;17.024;2023-02-20T03:25:03;100610;;;0.6;100.0
68320;BME280;55168;51.120;17.024;2023-02-20T03:26:02;100620;;;0.6;100.0
68320;BME280;55168;51.120;17.024;2023-02-20T03:27:00;100620;;;0.6;100.0
68320;BME280;55168;51.120;17.024;2023-02-20T03:28:02;100620;;;0.6;100.0
68320;BME280;55168;51.120;17.024;2023-02-20T03:29:02;100620;;;0.6;100.0
68320;BME280;55168;51.120;17.024;2023-02-20T03:30:00;100630;;;0.6;100.0
68320;BME280;55168;51.120;17.024;2023-02-20T03:32:01;100630;;;0.6;100.0
68320;BME280;55168;51.120;17.024;2023-02-20T03:33:03;100630;;;0.6;100.0
68320;BME280;55168;51.120;17.024;2023-02-20T03:34:08;100640;;;0.6;100.0
68320;BME280;55168;51.120;17.024;2023-02-20T03:35:00;100640;;;0.6;100.0
68320;BME280;55168;51.120;17.024;2023-02-20T03:36:00;100640;;;0.6;100.0
68320;BME280;55168;51.120;17.024;2023-02-20T03:37:02;100640;;;0.6;100.0
68320;BME280;55168;51.120;17.024;2023-02-20T03:38:00;100640;;;0.7;100.0
68320;BME280;55168;51.120;17.024;2023-02-20T03:39:02;100640;;;0.8;100.0
68320;BME280;55168;51.120;17.024;2023-02-20T03:40:01;100630;;;0.8;100.0
68320;BME280;55168;51.120;17.024;2023-02-20T03:41:00;100630;;;0.8;100.0
68320;BME280;55168;51.120;17.024;2023-02-20T03:42:00;100630;;;0.8;100.0
68320;BME280;55168;51.120;17.024;2023-02-20T03:43:01;100630;;;0.9;100.0
68320;BME280;55168;51.120;17.024;2023-02-20T03:44:00;100620;;;0.9;100.0
68320;BME280;55168;51.120;17.024;2023-02-20T03:45:00;100620;;;0.9;100.0
68320;BME280;55168;51.120;17.024;2023-02-20T03:46:02;100620;;;0.9;100.0
68320;BME280;55168;51.120;17.024;2023-02-20T03:47:00;100620;;;1.0;100.0
68320;BME280;55168;51.120;17.024;2023-02-20T03:48:01;100620;;;1.0;100.0
68320;BME280;55168;51.120;17.024;2023-02-20T03:49:03;100620;;;1.0;100.0
68320;BME280;55168;51.120;17.024;2023-02-20T03:50:00;100620;;;1.0;100.0
68320;BME280;55168;51.120;17.024;2023-02-20T03:51:00;100610;;;1.0;100.0
68320;BME280;55168;51.120;17.024;2023-02-20T03:52:00;100610;;;1.1;100.0
68320;BME280;55168;51.120;17.024;2023-02-20T03:53:00;100610;;;1.1;100.0
68320;BME280;55168;51.120;17.024;2023-02-20T03:54:00;100610;;;1.1;100.0
68320;BME280;55168;51.120;17.024;2023-02-20T03:55:00;100610;;;1.1;100.0
68320;BME280;55168;51.120;17.024;2023-02-20T03:56:01;100610;;;1.1;100.0
68320;BME280;55168;51.120;17.024;2023-02-20T03:58:01;100610;;;1.1;100.0
68320;BME280;55168;51.120;17.024;2023-02-20T03:59:01;100610;;;1.1;100.0
68320;BME280;55168;51.120;17.024;2023-02-20T04:00:03;100610;;;1.1;100.0
68320;BME280;55168;51.120;17.024;2023-02-20T04:01:00;100600;;;1.1;100.0
68320;BME280;55168;51.120;17.024;2023-02-20T04:02:01;100600;;;1.0;100.0
68320;BME280;55168;51.120;17.024;2023-02-20T04:03:01;100600;;;1.0;100.0
68320;BME280;55168;51.120;17.024;2023-02-20T04:04:00;100600;;;1.0;100.0
68320;BME280;55168;51.120;17.024;2023-02-20T04:05:01;100600;;;1.0;100.0
68320;BME280;55168;51.120;17.024;2023-02-20T04:06:00;100600;;;1.0;100.0
68320;BME280;55168;51.120;17.024;2023-02-20T04:07:00;100600;;;1.0;100.0
68320;BME280;55168;51.120;17.024;2023-02-20T04:08:04;100590;;;1.0;100.0
68320;BME280;55168;51.120;17.024;2023-02-20T04:09:02;100590;;;1.0;100.0
68320;BME280;55168;51.120;17.024;2023-02-20T04:10:01;100590;;;1.0;100.0
68320;BME280;55168;51.120;17.024;2023-02-20T04:11:02;100590;;;1.0;100.0
68320;BME280;55168;51.120;17.024;2023-02-20T04:12:05;100580;;;1.0;100.0
68320;BME280;55168;51.120;17.024;2023-02-20T04:13:00;100570;;;1.0;100.0
68320;BME280;55168;51.120;17.024;2023-02-20T04:14:00;100570;;;1.0;100.0
68320;BME280;55168;51.120;17.024;2023-02-20T04:15:00;100570;;;1.0;100.0
68320;BME280;55168;51.120;17.024;2023-02-20T04:16:00;100560;;;1.0;100.0
68320;BME280;55168;51.120;17.024;2023-02-20T04:17:02;100560;;;1.0;100.0
68320;BME280;55168;51.120;17.024;2023-02-20T04:18:04;100560;;;1.0;100.0
68320;BME280;55168;51.120;17.024;2023-02-20T04:19:00;100550;;;1.0;100.0
68320;BME280;55168;51.120;17.024;2023-02-20T04:20:00;100560;;;1.0;100.0
68320;BME280;55168;51.120;17.024;2023-02-20T04:21:00;100560;;;1.0;100.0
68320;BME280;55168;51.120;17.024;2023-02-20T04:22:01;100550;;;1.0;100.0
68320;BME280;55168;51.120;17.024;2023-02-20T04:23:01;100550;;;1.0;100.0
68320;BME280;55168;51.120;17.024;2023-02-20T04:24:02;100560;;;1.0;100.0
68320;BME280;55168;51.120;17.024;2023-02-20T04:25:01;100560;;;1.0;100.0
68320;BME280;55168;51.120;17.024;2023-02-20T04:26:01;100560;;;0.9;100.0
68320;BME280;55168;51.120;17.024;2023-02-20T04:27:00;100560;;;0.9;100.0
68320;BME280;55168;51.120;17.024;2023-02-20T04:28:00;100560;;;1.0;100.0
68320;BME280;55168;51.120;17.024;2023-02-20T04:29:00;100560;;;0.9;100.0
68320;BME280;55168;51.120;17.024;2023-02-20T04:30:00;100570;;;1.0;100.0
68320;BME280;55168;51.120;17.024;2023-02-20T04:31:00;100570;;;1.0;100.0
68320;BME280;55168;51.120;17.024;2023-02-20T04:32:00;100570;;;1.0;100.0
68320;BME280;55168;51.120;17.024;2023-02-20T04:33:00;100570;;;1.0;100.0
68320;BME280;55168;51.120;17.024;2023-02-20T04:34:00;100570;;;1.0;100.0
68320;BME280;55168;51.120;17.024;2023-02-20T04:35:00;100570;;;1.0;100.0
68320;BME280;55168;51.120;17.024;2023-02-20T04:36:00;100570;;;1.0;100.0
68320;BME280;55168;51.120;17.024;2023-02-20T04:37:08;100560;;;1.0;100.0
68320;BME280;55168;51.120;17.024;2023-02-20T04:38:00;100570;;;1.0;100.0
68320;BME280;55168;51.120;17.024;2023-02-20T04:39:00;100570;;;1.0;100.0
68320;BME280;55168;51.120;17.024;2023-02-20T04:40:00;100570;;;1.0;100.0
68320;BME280;55168;51.120;17.024;2023-02-20T04:41:00;100560;;;1.1;100.0
68320;BME280;55168;51.120;17.024;2023-02-20T04:42:00;100560;;;1.1;100.0
68320;BME280;55168;51.120;17.024;2023-02-20T04:43:00;100560;;;1.2;100.0
68320;BME280;55168;51.120;17.024;2023-02-20T04:44:00;100560;;;1.2;100.0
68320;BME280;55168;51.120;17.024;2023-02-20T04:45:00;100560;;;1.3;100.0
68320;BME280;55168;51.120;17.024;2023-02-20T04:46:00;100560;;;1.3;100.0
68320;BME280;55168;51.120;17.024;2023-02-20T04:47:01;100550;;;1.3;100.0
68320;BME280;55168;51.120;17.024;2023-02-20T04:48:00;100550;;;1.3;100.0
68320;BME280;55168;51.120;17.024;2023-02-20T04:49:00;100550;;;1.3;100.0
68320;BME280;55168;51.120;17.024;2023-02-20T04:50:00;100550;;;1.3;100.0
68320;BME280;55168;51.120;17.024;2023-02-20T04:51:00;100540;;;1.3;100.0
68320;BME280;55168;51.120;17.024;2023-02-20T04:52:00;100540;;;1.3;100.0
68320;BME280;55168;51.120;17.024;2023-02-20T04:53:00;100540;;;1.3;100.0
68320;BME280;55168;51.120;17.024;2023-02-20T04:54:00;100530;;;1.3;100.0
68320;BME280;55168;51.120;17.024;2023-02-20T04:55:00;100530;;;1.3;100.0
68320;BME280;55168;51.120;17.024;2023-02-20T04:56:00;100540;;;1.2;100.0
68320;BME280;55168;51.120;17.024;2023-02-20T04:57:00;100540;;;1.2;100.0
68320;BME280;55168;51.120;17.024;2023-02-20T04:58:00;100540;;;1.2;100.0
68320;BME280;55168;51.120;17.024;2023-02-20T04:59:00;100530;;;1.2;100.0
68320;BME280;55168;51.120;17.024;2023-02-20T05:00:00;100530;;;1.2;100.0
68320;BME280;55168;51.120;17.024;2023-02-20T05:01:00;100540;;;1.2;100.0
68320;BME280;55168;51.120;17.024;2023-02-20T05:02:00;100540;;;1.3;100.0
68320;BME280;55168;51.120;17.024;2023-02-20T05:03:00;100540;;;1.3;100.0
68320;BME280;55168;51.120;17.024;2023-02-20T05:04:00;100540;;;1.3;100.0
68320;BME280;55168;51.120;17.024;2023-02-20T05:05:00;100530;;;1.4;100.0
68320;BME280;55168;51.120;17.024;2023-02-20T05:06:00;100530;;;1.4;100.0
68320;BME280;55168;51.120;17.024;2023-02-20T05:07:00;100520;;;1.4;100.0
68320;BME280;55168;51.120;17.024;2023-02-20T05:08:01;100520;;;1.4;100.0
68320;BME280;55168;51.120;17.024;2023-02-20T05:09:00;100520;;;1.4;100.0
68320;BME280;55168;51.120;17.024;2023-02-20T05:10:00;100520;;;1.4;100.0
68320;BME280;55168;51.120;17.024;2023-02-20T05:11:00;100520;;;1.4;100.0
68320;BME280;55168;51.120;17.024;2023-02-20T05:12:00;100530;;;1.3;100.0
68320;BME280;55168;51.120;17.024;2023-02-20T05:13:00;100530;;;1.3;100.0
68320;BME280;55168;51.120;17.024;2023-02-20T05:14:00;100520;;;1.3;100.0
68320;BME280;55168;51.120;17.024;2023-02-20T05:15:00;100520;;;1.3;100.0
68320;BME280;55168;51.120;17.024;2023-02-20T05:16:00;100520;;;1.3;100.0
68320;BME280;55168;51.120;17.024;2023-02-20T05:17:00;100520;;;1.3;100.0
68320;BME280;55168;51.120;17.024;2023-02-20T05:18:00;100520;;;1.3;100.0
68320;BME280;55168;51.120;17.024;2023-02-20T05:19:00;100520;;;1.3;100.0
68320;BME280;55168;51.120;17.024;2023-02-20T05:20:00;100520;;;1.3;100.0
68320;BME280;55168;51.120;17.024;2023-02-20T05:21:00;100520;;;1.3;100.0
68320;BME280;55168;51.120;17.024;2023-02-20T05:22:00;100520;;;1.3;100.0
68320;BME280;55168;51.120;17.024;2023-02-20T05:23:00;100520;;;1.3;100.0
68320;BME280;55168;51.120;17.024;2023-02-20T05:24:00;100520;;;1.3;100.0
68320;BME280;55168;51.120;17.024;2023-02-20T05:25:00;100520;;;1.3;100.0
68320;BME280;55168;51.120;17.024;2023-02-20T05:26:00;100520;;;1.3;100.0
68320;BME280;55168;51.120;17.024;2023-02-20T05:27:00;100520;;;1.3;100.0
68320;BME280;55168;51.120;17.024;2023-02-20T05:28:00;100520;;;1.3;100.0
68320;BME280;55168;51.120;17.024;2023-02-20T05:29:00;100520;;;1.3;100.0
68320;BME280;55168;51.120;17.024;2023-02-20T05:30:00;100510;;;1.3;100.0
68320;BME280;55168;51.120;17.024;2023-02-20T05:31:00;100520;;;1.3;100.0
68320;BME280;55168;51.120;17.024;2023-02-20T05:32:00;100510;;;1.3;100.0
68320;BME280;55168;51.120;17.024;2023-02-20T05:33:00;100510;;;1.3;100.0
68320;BME280;55168;51.120;17.024;2023-02-20T05:34:00;100510;;;1.4;100.0
68320;BME280;55168;51.120;17.024;2023-02-20T05:35:00;100510;;;1.4;100.0
68320;BME280;55168;51.120;17.024;2023-02-20T05:36:00;100510;;;1.4;100.0
68320;BME280;55168;51.120;17.024;2023-02-20T05:37:00;100500;;;1.4;100.0
68320;BME280;55168;51.120;17.024;2023-02-20T05:38:00;100500;;;1.4;100.0
68320;BME280;55168;51.120;17.024;2023-02-20T05:39:00;100510;;;1.4;100.0
68320;BME280;55168;51.120;17.024;2023-02-20T05:40:00;100510;;;1.4;100.0
68320;BME280;55168;51.120;17.024;2023-02-20T05:41:00;100510;;;1.4;100.0
68320;BME280;55168;51.120;17.024;2023-02-20T05:42:00;100510;;;1.4;100.0
68320;BME280;55168;51.120;17.024;2023-02-20T05:43:00;100520;;;1.4;100.0
68320;BME280;55168;51.120;17.024;2023-02-20T05:44:00;100510;;;1.4;100.0
68320;BME280;55168;51.120;17.024;2023-02-20T05:45:00;100510;;;1.4;100.0
68320;BME280;55168;51.120;17.024;2023-02-20T05:46:00;100510;;;1.5;100.0
68320;BME280;55168;51.120;17.024;2023-02-20T05:47:00;100510;;;1.5;100.0
68320;BME280;55168;51.120;17.024;2023-02-20T05:48:00;100510;;;1.5;100.0
68320;BME280;55168;51.120;17.024;2023-02-20T05:49:00;100510;;;1.5;100.0
68320;BME280;55168;51.120;17.024;2023-02-20T05:50:00;100510;;;1.5;100.0
68320;BME280;55168;51.120;17.024;2023-02-20T05:51:00;100510;;;1.5;100.0
68320;BME280;55168;51.120;17.024;2023-02-20T05:52:00;100510;;;1.5;100.0